Time;durP1;ratioP1;P1;durP2;ratioP2;P2;SDS_P1;SDS_P2;PMS_P1;PMS_P2;Temp;Humidity;BMP_temperature;BMP_pressure;BME280_temperature;BME280_humidity;BME280_pressure;Samples;Min_cycle;Max_cycle;Signal;HPM_P1;HPM_P2
2022/12/15 00:40:35;;;;;;;37.33;21.53;;;;;;;;;;5038350;28;20550;-74
2022/12/15 00:43:39;;;;;;;37.50;20.80;;;;;;;;;;5014953;28;20558;-74
2022/12/15 00:46:55;;;;;;;41.17;22.10;;;;;;;;;;5025856;28;20902;-74
2022/12/15 01:20:25;;;;;;;37.77;22.43;;;;;;;;;;5036799;28;20630;-74
2022/12/15 01:23:31;;;;;;;37.83;21.80;;;;;;;;;;5036738;28;20606;-74
2022/12/15 01:26:35;;;;;;;43.37;22.87;;;;;;;;;;5025373;28;20559;-74
2022/12/15 01:29:40;;;;;;;40.87;22.07;;;;;;;;;;5025052;28;21085;-74
2022/12/15 01:32:44;;;;;;;35.47;20.83;;;;;;;;;;5035469;28;20617;-74
2022/12/15 01:35:59;;;;;;;39.00;21.13;;;;;;;;;;5036495;28;20555;-74
2022/12/15 01:39:03;;;;;;;36.17;20.63;;;;;;;;;;5036518;28;21211;-74
2022/12/15 01:42:11;;;;;;;35.27;21.33;;;;;;;;;;5024085;28;20645;-74
2022/12/15 01:45:27;;;;;;;38.23;21.70;;;;;;;;;;5023992;28;20602;-75
2022/12/15 01:48:38;;;;;;;39.67;22.13;;;;;;;;;;5012970;28;20615;-74
2022/12/15 01:51:47;;;;;;;41.73;23.33;;;;;;;;;;5035797;28;20630;-74
2022/12/15 01:54:55;;;;;;;38.57;21.20;;;;;;;;;;5023792;28;20551;-74
2022/12/15 01:58:05;;;;;;;41.93;21.83;;;;;;;;;;5023694;28;20922;-74
2022/12/15 02:01:09;;;;;;;42.10;22.07;;;;;;;;;;5023585;28;20634;-74
2022/12/15 02:04:15;;;;;;;40.17;23.20;;;;;;;;;;5023466;28;20597;-74
2022/12/15 02:07:19;;;;;;;40.47;22.50;;;;;;;;;;5035475;28;20606;-74
2022/12/15 02:10:31;;;;;;;40.40;22.43;;;;;;;;;;5035792;28;20547;-74
2022/12/15 02:13:58;;;;;;;39.03;22.50;;;;;;;;;;5023015;28;20559;-74
2022/12/15 02:17:16;;;;;;;38.97;21.87;;;;;;;;;;5023459;28;20555;-74
2022/12/15 02:20:51;;;;;;;40.83;21.67;;;;;;;;;;5034203;28;20630;-74
2022/12/15 02:24:26;;;;;;;34.27;20.03;;;;;;;;;;5023124;28;20555;-74
2022/12/15 02:27:47;;;;;;;38.37;21.63;;;;;;;;;;5035262;28;20544;-73
2022/12/15 02:34:40;;;;;;;40.53;22.07;;;;;;;;;;5011252;28;20562;-74
2022/12/15 02:37:44;;;;;;;37.97;20.87;;;;;;;;;;5022669;28;20591;-73
2022/12/15 02:40:56;;;;;;;40.30;22.27;;;;;;;;;;5035319;28;20543;-74
2022/12/15 02:44:07;;;;;;;40.47;21.73;;;;;;;;;;5034955;28;21101;-73
2022/12/15 02:47:23;;;;;;;39.63;20.57;;;;;;;;;;5035289;28;20606;-74
2022/12/15 02:50:50;;;;;;;41.30;20.73;;;;;;;;;;5022428;28;20555;-74
2022/12/15 02:54:16;;;;;;;36.50;20.90;;;;;;;;;;5035121;28;20547;-73
2022/12/15 02:57:30;;;;;;;37.07;20.40;;;;;;;;;;5034639;28;21125;-74
2022/12/15 03:00:40;;;;;;;36.33;20.20;;;;;;;;;;5034722;28;20555;-74
2022/12/15 03:03:47;;;;;;;36.07;20.33;;;;;;;;;;5034512;28;20563;-73
2022/12/15 03:06:56;;;;;;;38.53;20.73;;;;;;;;;;5034235;28;20970;-74
2022/12/15 03:10:03;;;;;;;44.07;20.60;;;;;;;;;;5022067;28;20548;-74
2022/12/15 03:13:08;;;;;;;36.73;20.30;;;;;;;;;;5033909;28;20694;-73
2022/12/15 03:16:11;;;;;;;36.23;21.37;;;;;;;;;;5021943;28;20945;-73
2022/12/15 03:19:16;;;;;;;38.77;21.37;;;;;;;;;;5033946;28;21284;-74
2022/12/15 03:22:20;;;;;;;39.33;22.37;;;;;;;;;;5033061;28;21299;-74
2022/12/15 03:25:24;;;;;;;46.20;22.03;;;;;;;;;;5021859;28;21112;-74
2022/12/15 03:28:28;;;;;;;38.37;20.20;;;;;;;;;;5021562;28;20622;-74
2022/12/15 03:31:32;;;;;;;38.10;20.57;;;;;;;;;;5021784;28;20626;-73
2022/12/15 03:34:36;;;;;;;37.83;21.23;;;;;;;;;;5021466;28;20562;-74
2022/12/15 03:37:41;;;;;;;42.70;20.83;;;;;;;;;;5033835;28;20551;-74
2022/12/15 03:40:45;;;;;;;42.70;21.23;;;;;;;;;;5021269;28;20602;-74
2022/12/15 03:43:49;;;;;;;41.00;22.20;;;;;;;;;;5021367;28;20583;-74
2022/12/15 03:46:54;;;;;;;40.67;21.63;;;;;;;;;;5033609;28;20547;-74
2022/12/15 03:49:58;;;;;;;36.33;20.77;;;;;;;;;;5021086;28;20607;-74
2022/12/15 03:53:04;;;;;;;43.50;23.20;;;;;;;;;;5021018;28;20622;-74
2022/12/15 03:56:08;;;;;;;41.90;22.47;;;;;;;;;;5033178;28;20555;-73
2022/12/15 03:59:12;;;;;;;42.90;23.90;;;;;;;;;;5021101;28;20547;-73
2022/12/15 04:02:18;;;;;;;40.30;22.17;;;;;;;;;;5033755;28;20639;-74
2022/12/15 04:05:31;;;;;;;40.90;21.77;;;;;;;;;;5034501;28;20547;-74
2022/12/15 04:08:35;;;;;;;37.37;20.03;;;;;;;;;;5033497;28;20603;-74
2022/12/15 04:11:39;;;;;;;38.50;20.80;;;;;;;;;;5033706;28;20645;-74
2022/12/15 04:14:43;;;;;;;42.13;22.07;;;;;;;;;;5021797;28;21172;-74
2022/12/15 04:17:47;;;;;;;39.70;21.57;;;;;;;;;;5033927;28;21171;-73
2022/12/15 04:20:51;;;;;;;42.77;22.47;;;;;;;;;;5057641;22;20693;-71
2022/12/15 05:31:47;;;;;;;56.87;25.17;;;;;;;;;;5043651;28;20621;-74
2022/12/15 05:34:51;;;;;;;50.67;24.90;;;;;;;;;;5043660;28;20608;-74
2022/12/15 05:37:55;;;;;;;44.20;24.17;;;;;;;;;;5043854;28;20549;-74
2022/12/15 05:41:00;;;;;;;46.93;23.70;;;;;;;;;;5032323;28;20617;-74
2022/12/15 05:44:04;;;;;;;48.00;22.60;;;;;;;;;;5056060;28;20552;-74
2022/12/15 05:47:10;;;;;;;42.37;22.10;;;;;;;;;;5055488;28;20550;-74
2022/12/15 05:50:14;;;;;;;47.27;23.20;;;;;;;;;;5055669;28;20606;-74
2022/12/15 05:53:18;;;;;;;44.13;23.37;;;;;;;;;;5043423;28;20546;-72
2022/12/15 05:56:24;;;;;;;45.37;21.73;;;;;;;;;;5043728;28;20538;-74
2022/12/15 05:59:28;;;;;;;49.20;24.27;;;;;;;;;;5055197;28;20555;-74
2022/12/15 06:02:32;;;;;;;48.77;24.20;;;;;;;;;;5043344;28;20977;-74
2022/12/15 06:05:38;;;;;;;48.27;23.10;;;;;;;;;;5055688;28;20546;-73
2022/12/15 06:08:43;;;;;;;45.13;22.93;;;;;;;;;;5055249;28;20550;-74
2022/12/15 06:11:47;;;;;;;47.47;24.03;;;;;;;;;;5055357;28;21222;-74
2022/12/15 06:14:51;;;;;;;43.33;23.93;;;;;;;;;;5042786;28;20617;-74
2022/12/15 06:17:55;;;;;;;48.97;24.83;;;;;;;;;;5054887;28;20605;-74
2022/12/15 06:21:05;;;;;;;45.47;24.97;;;;;;;;;;5054617;28;20617;-74
2022/12/15 06:24:09;;;;;;;52.07;24.47;;;;;;;;;;5043068;28;20556;-74
2022/12/15 06:27:13;;;;;;;47.83;23.43;;;;;;;;;;5054936;28;20566;-74
2022/12/15 06:30:17;;;;;;;47.93;24.33;;;;;;;;;;5042298;28;20619;-74
2022/12/15 06:33:22;;;;;;;55.43;24.67;;;;;;;;;;5042700;28;21131;-74
2022/12/15 06:36:27;;;;;;;45.47;24.53;;;;;;;;;;5054798;28;20613;-74
2022/12/15 06:39:31;;;;;;;46.33;24.20;;;;;;;;;;5054412;28;20613;-74
2022/12/15 06:42:35;;;;;;;47.23;24.20;;;;;;;;;;5042081;28;20625;-74
2022/12/15 06:45:38;;;;;;;50.63;24.10;;;;;;;;;;5042329;28;20601;-74
2022/12/15 06:48:44;;;;;;;52.00;25.10;;;;;;;;;;5041944;28;20609;-74
2022/12/15 06:51:49;;;;;;;48.23;24.37;;;;;;;;;;5042164;28;20636;-74
2022/12/15 06:54:53;;;;;;;47.63;25.07;;;;;;;;;;5042338;28;20554;-73
2022/12/15 06:57:56;;;;;;;50.23;24.70;;;;;;;;;;5054343;28;20538;-74
2022/12/15 07:01:06;;;;;;;45.60;23.07;;;;;;;;;;5053921;28;20681;-74
2022/12/15 07:04:11;;;;;;;42.73;21.77;;;;;;;;;;5054060;28;20638;-74
2022/12/15 07:07:15;;;;;;;43.13;23.23;;;;;;;;;;5041585;28;20609;-73
2022/12/15 07:10:19;;;;;;;43.47;22.57;;;;;;;;;;5054289;28;20601;-74
2022/12/15 07:13:24;;;;;;;47.67;23.43;;;;;;;;;;5041417;28;20566;-73
2022/12/15 07:16:29;;;;;;;47.03;23.70;;;;;;;;;;5054161;28;20546;-74
2022/12/15 07:19:34;;;;;;;62.37;29.77;;;;;;;;;;5054039;28;20555;-74
2022/12/15 07:22:38;;;;;;;141.73;52.20;;;;;;;;;;5041247;28;20977;-74
2022/12/15 07:25:42;;;;;;;71.00;32.40;;;;;;;;;;5030190;28;20554;-74
2022/12/15 07:28:46;;;;;;;52.80;27.17;;;;;;;;;;5041389;28;20558;-74
2022/12/15 07:31:50;;;;;;;46.90;23.97;;;;;;;;;;5040894;28;20973;-74
2022/12/15 07:34:54;;;;;;;45.87;23.90;;;;;;;;;;5053421;28;20559;-74
2022/12/15 07:37:59;;;;;;;47.40;24.77;;;;;;;;;;5053651;28;20617;-74
2022/12/15 07:41:05;;;;;;;42.43;23.30;;;;;;;;;;5040959;28;20910;-73
2022/12/15 07:44:09;;;;;;;42.67;22.60;;;;;;;;;;5053332;28;20906;-74
2022/12/15 07:47:13;;;;;;;44.43;22.90;;;;;;;;;;5053853;28;20945;-74
2022/12/15 07:50:18;;;;;;;44.30;21.73;;;;;;;;;;5041136;28;21163;-74
2022/12/15 07:53:26;;;;;;;47.43;22.83;;;;;;;;;;5041229;28;20554;-74
2022/12/15 07:56:30;;;;;;;41.80;22.10;;;;;;;;;;5029719;28;20546;-75
2022/12/15 07:59:35;;;;;;;41.47;22.63;;;;;;;;;;5029738;28;20542;-74
2022/12/15 08:02:42;;;;;;;42.23;21.47;;;;;;;;;;5041045;28;20630;-73
2022/12/15 08:05:46;;;;;;;48.87;22.97;;;;;;;;;;5029989;28;20897;-74
2022/12/15 08:08:50;;;;;;;39.37;21.57;;;;;;;;;;5053024;28;20601;-74
2022/12/15 08:11:54;;;;;;;42.93;23.17;;;;;;;;;;5040789;28;20617;-74
2022/12/15 08:14:59;;;;;;;44.47;23.87;;;;;;;;;;5040911;28;20601;-74
2022/12/15 08:18:04;;;;;;;44.97;22.83;;;;;;;;;;5053153;28;20562;-74
2022/12/15 08:21:09;;;;;;;43.37;22.13;;;;;;;;;;5052987;28;20641;-74
2022/12/15 08:24:14;;;;;;;41.90;23.07;;;;;;;;;;5040661;28;20542;-74
2022/12/15 08:27:20;;;;;;;44.37;22.17;;;;;;;;;;5040914;28;20559;-74
2022/12/15 08:30:24;;;;;;;46.93;22.97;;;;;;;;;;5053073;28;20965;-74
2022/12/15 08:33:28;;;;;;;42.80;23.10;;;;;;;;;;5040653;28;20921;-74
2022/12/15 08:36:32;;;;;;;46.20;23.73;;;;;;;;;;5053024;28;20613;-74
2022/12/15 08:39:36;;;;;;;49.30;22.37;;;;;;;;;;5040901;28;20605;-73
2022/12/15 08:42:40;;;;;;;40.47;21.53;;;;;;;;;;5042025;28;20630;-74
2022/12/15 08:45:44;;;;;;;39.57;21.40;;;;;;;;;;5044624;28;20624;-73
2022/12/15 08:48:49;;;;;;;41.13;21.47;;;;;;;;;;5044398;28;20965;-74
2022/12/15 08:51:53;;;;;;;44.83;24.77;;;;;;;;;;5033352;28;20629;-74
2022/12/15 08:54:57;;;;;;;56.10;32.53;;;;;;;;;;5057017;28;20894;-73
2022/12/15 08:58:02;;;;;;;49.07;25.17;;;;;;;;;;5033259;28;20633;-74
2022/12/15 09:01:09;;;;;;;42.73;22.63;;;;;;;;;;5044567;28;20632;-74
2022/12/15 09:04:14;;;;;;;47.17;24.87;;;;;;;;;;5056419;28;21214;-74
2022/12/15 09:07:18;;;;;;;45.53;23.47;;;;;;;;;;5044485;28;20605;-74
2022/12/15 09:10:23;;;;;;;44.17;23.83;;;;;;;;;;5056348;28;20661;-74
2022/12/15 09:13:27;;;;;;;43.20;23.27;;;;;;;;;;5056441;28;20557;-74
2022/12/15 09:16:31;;;;;;;47.30;24.47;;;;;;;;;;5056358;28;21096;-74
2022/12/15 09:19:35;;;;;;;41.10;23.53;;;;;;;;;;5056048;28;20562;-74
2022/12/15 09:22:40;;;;;;;60.30;29.70;;;;;;;;;;5055949;28;20641;-74
2022/12/15 09:25:45;;;;;;;43.43;23.80;;;;;;;;;;5043944;28;20546;-74
2022/12/15 09:28:49;;;;;;;47.70;25.90;;;;;;;;;;5032758;28;20909;-74
2022/12/15 09:31:54;;;;;;;59.40;31.03;;;;;;;;;;5056096;28;20629;-74
2022/12/15 09:34:57;;;;;;;53.80;28.37;;;;;;;;;;5043768;28;20555;-74
2022/12/15 09:38:02;;;;;;;53.13;25.13;;;;;;;;;;5056178;28;20911;-74
2022/12/15 09:41:12;;;;;;;49.17;24.83;;;;;;;;;;5056104;28;21098;-74
2022/12/15 09:44:19;;;;;;;45.07;22.97;;;;;;;;;;5043868;28;20548;-74
2022/12/15 09:47:35;;;;;;;43.50;22.47;;;;;;;;;;5056047;28;20543;-74
2022/12/15 09:50:42;;;;;;;42.33;22.70;;;;;;;;;;5055804;28;20601;-74
2022/12/15 09:53:46;;;;;;;46.60;22.53;;;;;;;;;;5054983;28;21175;-74
2022/12/15 09:56:55;;;;;;;47.37;23.23;;;;;;;;;;5056085;28;21111;-74
2022/12/15 10:00:15;;;;;;;43.63;22.20;;;;;;;;;;5043617;28;20538;-74
2022/12/15 10:03:44;;;;;;;52.17;24.40;;;;;;;;;;5031809;28;20560;-74
2022/12/15 10:07:00;;;;;;;42.63;21.80;;;;;;;;;;5043481;28;20534;-74
2022/12/15 10:10:41;;;;;;;43.93;23.83;;;;;;;;;;5043219;28;20605;-73
2022/12/15 10:13:53;;;;;;;44.07;22.60;;;;;;;;;;5051979;28;20621;-74
2022/12/15 10:17:01;;;;;;;48.77;24.60;;;;;;;;;;5055246;28;20546;-74
2022/12/15 10:20:21;;;;;;;41.60;22.50;;;;;;;;;;5054710;28;20602;-74
2022/12/15 10:23:25;;;;;;;42.30;22.40;;;;;;;;;;5070609;22;21040;-73
2022/12/15 10:26:34;;;;;;;40.93;20.57;;;;;;;;;;5020155;28;20593;-73
2022/12/15 10:29:44;;;;;;;43.27;22.13;;;;;;;;;;5055226;28;20566;-73
2022/12/15 10:33:20;;;;;;;43.53;22.07;;;;;;;;;;5042970;28;20629;-73
2022/12/15 10:36:24;;;;;;;41.97;21.23;;;;;;;;;;5055020;28;20535;-73
2022/12/15 10:39:38;;;;;;;41.07;22.43;;;;;;;;;;5042515;28;20555;-73
2022/12/15 10:42:49;;;;;;;46.47;23.20;;;;;;;;;;5054841;28;20998;-73
2022/12/15 10:46:26;;;;;;;50.77;24.87;;;;;;;;;;5042285;28;20542;-73
2022/12/15 10:49:30;;;;;;;49.43;23.00;;;;;;;;;;5060645;28;20566;-73
2022/12/15 10:52:35;;;;;;;50.37;25.03;;;;;;;;;;5054926;28;20633;-73
2022/12/15 10:55:42;;;;;;;61.10;27.33;;;;;;;;;;5042291;28;20621;-73
2022/12/15 10:58:58;;;;;;;44.53;23.03;;;;;;;;;;5042143;28;20606;-73
2022/12/15 11:02:37;;;;;;;43.33;23.20;;;;;;;;;;5054374;28;20638;-73
2022/12/15 11:05:50;;;;;;;42.60;21.43;;;;;;;;;;4976476;28;20609;-73
2022/12/15 11:08:56;;;;;;;51.40;24.90;;;;;;;;;;5042182;28;20554;-73
2022/12/15 11:15:38;;;;;;;51.23;23.70;;;;;;;;;;5054291;28;21087;-73
2022/12/15 11:19:01;;;;;;;43.03;21.87;;;;;;;;;;5053811;28;20547;-73
2022/12/15 11:22:22;;;;;;;49.27;23.20;;;;;;;;;;5041841;28;20631;-73
2022/12/15 11:25:32;;;;;;;46.80;24.37;;;;;;;;;;5042186;28;20918;-73
2022/12/15 11:28:58;;;;;;;43.83;22.57;;;;;;;;;;5054132;28;20550;-73
2022/12/15 11:32:03;;;;;;;42.10;22.33;;;;;;;;;;5041665;28;20685;-73
2022/12/15 11:35:17;;;;;;;39.70;23.23;;;;;;;;;;5041515;28;20613;-73
2022/12/15 11:38:31;;;;;;;44.87;22.83;;;;;;;;;;5053564;28;20602;-73
2022/12/15 11:41:49;;;;;;;42.83;23.30;;;;;;;;;;5041792;28;20626;-72
2022/12/15 11:45:07;;;;;;;41.47;22.50;;;;;;;;;;5053809;28;20550;-73
2022/12/15 11:48:18;;;;;;;42.80;22.90;;;;;;;;;;5053850;28;20566;-73
2022/12/15 11:51:50;;;;;;;41.63;22.27;;;;;;;;;;5041594;28;20663;-73
2022/12/15 11:55:38;;;;;;;45.27;22.83;;;;;;;;;;5041545;28;20547;-73
2022/12/15 11:58:54;;;;;;;38.57;21.27;;;;;;;;;;5040960;28;20557;-73
2022/12/15 12:02:29;;;;;;;52.47;25.17;;;;;;;;;;5029919;28;20631;-73
2022/12/15 12:05:49;;;;;;;44.63;22.47;;;;;;;;;;5030030;28;20543;-73
2022/12/15 12:09:25;;;;;;;49.70;25.53;;;;;;;;;;5040928;28;20547;-73
2022/12/15 12:12:37;;;;;;;42.23;24.37;;;;;;;;;;5053190;28;20666;-73
2022/12/15 12:15:42;;;;;;;46.53;23.50;;;;;;;;;;5041258;28;20554;-73
2022/12/15 12:19:15;;;;;;;43.30;23.23;;;;;;;;;;5047146;28;20956;-73
2022/12/15 12:22:25;;;;;;;46.27;22.97;;;;;;;;;;5036042;28;20637;-73
2022/12/15 12:25:36;;;;;;;42.27;22.40;;;;;;;;;;5047851;28;20547;-73
2022/12/15 12:28:58;;;;;;;43.43;23.93;;;;;;;;;;5059799;28;21120;-73
2022/12/15 12:32:10;;;;;;;44.80;23.83;;;;;;;;;;5059947;28;20666;-73
2022/12/15 12:35:23;;;;;;;45.17;23.40;;;;;;;;;;5036457;28;20554;-73
2022/12/15 12:38:32;;;;;;;45.53;23.90;;;;;;;;;;5060204;28;20547;-72
2022/12/15 12:41:58;;;;;;;46.87;25.37;;;;;;;;;;5047363;28;20621;-72
2022/12/15 12:45:02;;;;;;;44.50;24.30;;;;;;;;;;5059964;28;20543;-72
2022/12/15 12:48:20;;;;;;;45.47;24.33;;;;;;;;;;5035894;28;20613;-72
2022/12/15 12:51:33;;;;;;;49.10;24.70;;;;;;;;;;5059485;28;20673;-72
2022/12/15 12:54:45;;;;;;;48.73;24.47;;;;;;;;;;5059892;28;20601;-72
2022/12/15 12:57:50;;;;;;;53.90;25.60;;;;;;;;;;5047298;28;20560;-72
2022/12/15 13:01:09;;;;;;;55.17;26.33;;;;;;;;;;5059419;28;20542;-72
2022/12/15 13:04:37;;;;;;;47.00;24.43;;;;;;;;;;5047802;28;20574;-72
2022/12/15 13:07:41;;;;;;;45.87;24.57;;;;;;;;;;5059602;28;21090;-72
2022/12/15 13:10:47;;;;;;;45.90;24.03;;;;;;;;;;5059900;28;21097;-72
2022/12/15 13:13:52;;;;;;;50.80;25.27;;;;;;;;;;5059822;28;20551;-72
2022/12/15 13:17:03;;;;;;;46.60;25.67;;;;;;;;;;5047224;28;20545;-72
2022/12/15 13:20:25;;;;;;;44.23;22.87;;;;;;;;;;5047162;28;20542;-72
2022/12/15 13:23:33;;;;;;;39.93;22.77;;;;;;;;;;5059100;28;20612;-72
2022/12/15 13:26:42;;;;;;;59.77;28.70;;;;;;;;;;5047281;28;20547;-72
2022/12/15 13:30:01;;;;;;;47.20;23.67;;;;;;;;;;5043520;28;20626;-72
2022/12/15 13:33:18;;;;;;;45.50;23.20;;;;;;;;;;5043675;28;20981;-72
2022/12/15 13:36:40;;;;;;;49.50;24.53;;;;;;;;;;5056206;28;21088;-72
2022/12/15 13:39:55;;;;;;;47.90;24.70;;;;;;;;;;5055955;28;20548;-72
2022/12/15 13:43:05;;;;;;;42.67;22.33;;;;;;;;;;5055807;28;20629;-72
2022/12/15 13:46:15;;;;;;;43.70;24.13;;;;;;;;;;5043825;28;20544;-72
2022/12/15 13:49:36;;;;;;;45.10;24.53;;;;;;;;;;5055753;28;20561;-72
2022/12/15 13:52:50;;;;;;;46.60;24.00;;;;;;;;;;5055840;28;20684;-72
2022/12/15 13:56:05;;;;;;;43.43;23.33;;;;;;;;;;5043681;28;20552;-72
2022/12/15 13:59:28;;;;;;;42.17;22.97;;;;;;;;;;5055589;28;20564;-72
2022/12/15 14:02:35;;;;;;;45.37;23.80;;;;;;;;;;5031861;28;21215;-72
2022/12/15 14:05:41;;;;;;;44.10;24.80;;;;;;;;;;5043248;28;20892;-72
2022/12/15 14:08:46;;;;;;;49.60;25.70;;;;;;;;;;5055446;28;20617;-72
2022/12/15 14:11:51;;;;;;;45.27;24.67;;;;;;;;;;5043084;28;20800;-72
2022/12/15 14:14:55;;;;;;;45.73;24.60;;;;;;;;;;5043072;28;20542;-72
2022/12/15 14:18:01;;;;;;;48.67;25.00;;;;;;;;;;5055486;28;20550;-72
2022/12/15 14:21:18;;;;;;;53.50;26.63;;;;;;;;;;5042726;28;20546;-72
2022/12/15 14:24:23;;;;;;;52.37;25.70;;;;;;;;;;5043231;28;21080;-72
2022/12/15 14:27:29;;;;;;;51.17;27.10;;;;;;;;;;5055031;28;20609;-72
2022/12/15 14:30:34;;;;;;;51.37;26.60;;;;;;;;;;5055069;28;20542;-72
2022/12/15 14:33:42;;;;;;;44.37;25.00;;;;;;;;;;5055169;28;20913;-72
2022/12/15 14:36:49;;;;;;;53.30;26.27;;;;;;;;;;5055060;28;20551;-72
2022/12/15 14:39:53;;;;;;;46.27;25.20;;;;;;;;;;5054709;28;20558;-72
2022/12/15 14:42:57;;;;;;;51.97;24.53;;;;;;;;;;5054372;28;20633;-72
2022/12/15 14:46:14;;;;;;;49.33;24.57;;;;;;;;;;5042373;28;20542;-72
2022/12/15 14:49:41;;;;;;;47.37;24.67;;;;;;;;;;5054660;28;20605;-72
2022/12/15 14:52:46;;;;;;;46.17;24.73;;;;;;;;;;5054210;28;20666;-72
2022/12/15 14:55:50;;;;;;;47.73;24.50;;;;;;;;;;5054388;28;20968;-72
2022/12/15 14:58:58;;;;;;;51.40;24.83;;;;;;;;;;5054417;28;20550;-72
2022/12/15 15:02:23;;;;;;;49.50;24.47;;;;;;;;;;5054207;28;20629;-72
2022/12/15 15:05:31;;;;;;;51.30;25.70;;;;;;;;;;5042013;28;20587;-72
2022/12/15 15:08:51;;;;;;;50.97;25.33;;;;;;;;;;5042023;28;20550;-72
2022/12/15 15:12:12;;;;;;;51.10;26.60;;;;;;;;;;5053936;28;20661;-72
2022/12/15 15:15:19;;;;;;;45.77;25.17;;;;;;;;;;5053947;28;21108;-72
2022/12/15 15:18:26;;;;;;;51.20;27.17;;;;;;;;;;5030437;28;20558;-72
2022/12/15 15:21:35;;;;;;;73.40;34.60;;;;;;;;;;5053945;28;20621;-72
2022/12/15 15:24:39;;;;;;;76.10;34.33;;;;;;;;;;5053651;28;20563;-72
2022/12/15 15:27:43;;;;;;;111.77;47.87;;;;;;;;;;5053595;28;20566;-72
2022/12/15 15:30:53;;;;;;;66.77;32.57;;;;;;;;;;5041586;28;20550;-72
2022/12/15 15:33:57;;;;;;;80.47;37.27;;;;;;;;;;5041545;28;20551;-72
2022/12/15 15:37:04;;;;;;;67.43;32.13;;;;;;;;;;5054095;28;20542;-72
2022/12/15 15:40:12;;;;;;;150.97;62.37;;;;;;;;;;5054249;28;20609;-72
2022/12/15 15:43:17;;;;;;;127.53;54.97;;;;;;;;;;5041340;28;20558;-72
2022/12/15 15:46:29;;;;;;;110.77;51.87;;;;;;;;;;5041321;28;20554;-72
2022/12/15 15:49:33;;;;;;;55.83;29.03;;;;;;;;;;5041154;28;20566;-72
2022/12/15 15:52:37;;;;;;;49.53;26.40;;;;;;;;;;5052675;28;20680;-72
2022/12/15 15:55:42;;;;;;;47.07;26.50;;;;;;;;;;5053435;28;20550;-72
2022/12/15 15:58:46;;;;;;;53.80;27.90;;;;;;;;;;5040967;28;20965;-72
2022/12/15 16:01:57;;;;;;;47.13;25.83;;;;;;;;;;5053606;28;20984;-72
2022/12/15 16:05:02;;;;;;;53.20;27.57;;;;;;;;;;5053046;28;20562;-72
2022/12/15 16:08:08;;;;;;;54.07;27.10;;;;;;;;;;5040809;28;20570;-72
2022/12/15 16:11:12;;;;;;;49.80;27.83;;;;;;;;;;5053217;28;21198;-72
2022/12/15 16:14:17;;;;;;;52.07;27.33;;;;;;;;;;5040752;28;20590;-72
2022/12/15 16:17:22;;;;;;;47.17;24.63;;;;;;;;;;5053184;28;20554;-72
2022/12/15 16:20:28;;;;;;;51.17;26.90;;;;;;;;;;5053699;28;20550;-72
2022/12/15 16:23:32;;;;;;;48.07;26.97;;;;;;;;;;5055542;22;21040;-71
2022/12/15 16:26:37;;;;;;;51.77;27.13;;;;;;;;;;5052904;28;20952;-71
2022/12/15 16:29:42;;;;;;;53.60;26.93;;;;;;;;;;5052737;28;20624;-72
2022/12/15 16:32:46;;;;;;;48.37;25.70;;;;;;;;;;5052837;28;21008;-73
2022/12/15 16:35:50;;;;;;;53.00;27.57;;;;;;;;;;5052973;28;20558;-73
2022/12/15 16:38:54;;;;;;;50.13;26.63;;;;;;;;;;5052653;28;20614;-73
2022/12/15 16:41:59;;;;;;;53.03;26.67;;;;;;;;;;5052670;28;20981;-73
2022/12/15 16:45:17;;;;;;;51.90;26.83;;;;;;;;;;5040695;28;21096;-73
2022/12/15 16:48:21;;;;;;;52.50;26.63;;;;;;;;;;5040948;28;20582;-73
2022/12/15 16:51:28;;;;;;;52.00;27.47;;;;;;;;;;5040514;28;20629;-73
2022/12/15 16:54:32;;;;;;;117.40;45.40;;;;;;;;;;5040540;28;20543;-73
2022/12/15 16:57:36;;;;;;;165.60;58.53;;;;;;;;;;5053006;28;20558;-73
2022/12/15 17:00:40;;;;;;;151.73;52.73;;;;;;;;;;5052653;28;20565;-73
2022/12/15 17:03:44;;;;;;;209.87;68.40;;;;;;;;;;5040540;28;20677;-73
2022/12/15 17:06:50;;;;;;;115.33;44.23;;;;;;;;;;5056692;28;21092;-72
2022/12/15 17:09:54;;;;;;;73.77;34.40;;;;;;;;;;5033001;28;20550;-73
2022/12/15 17:13:29;;;;;;;67.77;32.30;;;;;;;;;;5043680;28;20677;-73
2022/12/15 17:16:33;;;;;;;61.37;29.23;;;;;;;;;;5044088;28;20542;-74
2022/12/15 17:19:38;;;;;;;61.93;30.23;;;;;;;;;;5043697;28;20604;-72
2022/12/15 17:22:44;;;;;;;62.40;30.67;;;;;;;;;;5055950;28;20640;-73
2022/12/15 17:25:49;;;;;;;58.80;30.40;;;;;;;;;;5055899;28;20550;-73
2022/12/15 17:28:54;;;;;;;63.00;29.77;;;;;;;;;;5056453;28;20550;-73
2022/12/15 17:31:58;;;;;;;61.80;30.77;;;;;;;;;;5056088;28;20629;-73
2022/12/15 17:35:03;;;;;;;59.37;29.47;;;;;;;;;;5055729;28;20550;-72
2022/12/15 17:38:13;;;;;;;54.23;28.90;;;;;;;;;;5044211;28;20546;-73
2022/12/15 17:41:17;;;;;;;63.73;31.63;;;;;;;;;;5056111;28;20652;-73
2022/12/15 17:44:24;;;;;;;57.03;29.20;;;;;;;;;;5055830;28;20897;-73
2022/12/15 17:47:29;;;;;;;55.53;27.97;;;;;;;;;;5055861;28;20898;-73
2022/12/15 17:50:34;;;;;;;53.60;29.20;;;;;;;;;;5055747;28;20626;-73
2022/12/15 17:53:38;;;;;;;58.33;30.80;;;;;;;;;;5056124;28;20649;-73
2022/12/15 17:56:44;;;;;;;56.07;30.43;;;;;;;;;;5043440;28;20565;-73
2022/12/15 17:59:48;;;;;;;60.10;31.70;;;;;;;;;;5055821;28;21100;-73
2022/12/15 18:02:53;;;;;;;60.67;31.73;;;;;;;;;;5043080;28;20621;-73
2022/12/15 18:05:57;;;;;;;52.93;28.47;;;;;;;;;;5043356;28;20558;-73
2022/12/15 18:09:02;;;;;;;60.10;29.47;;;;;;;;;;5055120;28;20893;-73
2022/12/15 18:12:18;;;;;;;55.13;28.67;;;;;;;;;;5043160;28;20636;-73
2022/12/15 18:15:26;;;;;;;54.67;28.67;;;;;;;;;;5054593;28;20610;-73
2022/12/15 18:18:30;;;;;;;57.37;29.63;;;;;;;;;;5055009;28;20558;-73
2022/12/15 18:21:35;;;;;;;53.23;26.87;;;;;;;;;;5054937;28;20632;-72
2022/12/15 18:24:39;;;;;;;54.43;28.23;;;;;;;;;;5042486;28;20665;-73
2022/12/15 18:27:43;;;;;;;54.13;28.07;;;;;;;;;;5042740;28;20554;-73
2022/12/15 18:30:49;;;;;;;52.93;27.87;;;;;;;;;;5055199;28;20901;-73
2022/12/15 18:33:57;;;;;;;53.67;28.00;;;;;;;;;;5054855;28;21186;-73
2022/12/15 18:37:11;;;;;;;56.80;29.00;;;;;;;;;;5042485;28;20547;-73
2022/12/15 18:40:17;;;;;;;55.10;27.87;;;;;;;;;;5054850;28;20551;-73
2022/12/15 18:43:24;;;;;;;54.67;29.00;;;;;;;;;;5042323;28;20578;-73
2022/12/15 18:46:28;;;;;;;55.27;29.80;;;;;;;;;;5042890;28;20546;-73
2022/12/15 18:49:32;;;;;;;51.23;27.97;;;;;;;;;;5042478;28;20554;-73
2022/12/15 18:52:36;;;;;;;59.10;29.57;;;;;;;;;;5042106;28;20657;-73
2022/12/15 18:55:40;;;;;;;53.00;27.97;;;;;;;;;;5054572;28;20551;-73
2022/12/15 18:58:44;;;;;;;51.43;27.53;;;;;;;;;;5041891;28;20552;-73
2022/12/15 19:01:48;;;;;;;53.53;27.67;;;;;;;;;;5054342;28;20624;-72
2022/12/15 19:04:52;;;;;;;51.67;28.57;;;;;;;;;;5019273;28;20550;-73
2022/12/15 19:08:24;;;;;;;55.23;30.07;;;;;;;;;;5054294;28;20562;-73
2022/12/15 19:11:31;;;;;;;52.30;28.37;;;;;;;;;;5053925;28;20633;-73
2022/12/15 19:14:39;;;;;;;58.50;29.00;;;;;;;;;;5042133;28;20598;-73
2022/12/15 19:24:54;;;;;;;54.93;28.23;;;;;;;;;;5053678;28;20625;-73
2022/12/15 19:28:00;;;;;;;56.50;28.37;;;;;;;;;;5053379;28;20550;-73
2022/12/15 19:31:06;;;;;;;62.20;31.77;;;;;;;;;;5054071;28;20546;-73
2022/12/15 19:34:10;;;;;;;62.23;29.47;;;;;;;;;;5041410;28;20609;-73
2022/12/15 19:37:26;;;;;;;88.87;39.00;;;;;;;;;;5054025;28;20605;-73
2022/12/15 19:40:32;;;;;;;93.47;41.13;;;;;;;;;;5054244;28;20896;-73
2022/12/15 19:43:36;;;;;;;67.97;31.40;;;;;;;;;;5041260;28;20562;-73
2022/12/15 19:46:41;;;;;;;63.43;32.13;;;;;;;;;;5053585;28;20549;-73
2022/12/15 19:49:45;;;;;;;64.23;30.63;;;;;;;;;;5041072;28;20554;-72
2022/12/15 19:52:53;;;;;;;65.30;31.33;;;;;;;;;;5053757;28;20980;-73
2022/12/15 19:56:00;;;;;;;60.00;31.30;;;;;;;;;;5053504;28;20886;-73
2022/12/15 19:59:04;;;;;;;60.93;29.63;;;;;;;;;;5040925;28;21147;-73
2022/12/15 20:02:19;;;;;;;62.47;31.10;;;;;;;;;;5040822;28;20625;-72
2022/12/15 20:05:24;;;;;;;64.03;30.30;;;;;;;;;;5053927;28;20882;-73
2022/12/15 20:08:33;;;;;;;66.43;30.60;;;;;;;;;;5053663;28;21083;-73
2022/12/15 20:11:37;;;;;;;67.73;31.33;;;;;;;;;;5040918;28;20645;-73
2022/12/15 20:14:41;;;;;;;64.60;31.10;;;;;;;;;;5040880;28;20645;-73
2022/12/15 20:17:47;;;;;;;60.67;29.73;;;;;;;;;;5052930;28;20613;-73
2022/12/15 20:20:51;;;;;;;66.53;29.63;;;;;;;;;;5040913;28;20542;-73
2022/12/15 20:23:59;;;;;;;62.73;31.47;;;;;;;;;;5053499;28;21195;-73
2022/12/15 20:27:11;;;;;;;72.97;32.27;;;;;;;;;;5029577;28;21170;-73
2022/12/15 20:30:24;;;;;;;70.67;32.80;;;;;;;;;;5053375;28;20543;-73
2022/12/15 20:33:28;;;;;;;67.40;31.57;;;;;;;;;;5040728;28;20621;-73
2022/12/15 20:36:32;;;;;;;71.53;33.10;;;;;;;;;;5018214;28;20549;-73
2022/12/15 20:39:36;;;;;;;84.33;35.87;;;;;;;;;;5056235;28;20546;-73
2022/12/15 20:42:40;;;;;;;69.33;33.57;;;;;;;;;;5056951;28;20708;-73
2022/12/15 20:45:46;;;;;;;63.87;29.90;;;;;;;;;;5057276;28;20929;-73
2022/12/15 20:48:52;;;;;;;65.43;31.43;;;;;;;;;;5044453;28;20562;-73